createdAt,value
2023-01-11T00:01:08.980Z,2.24
2023-01-11T00:03:37.596Z,2.25
2023-01-11T00:06:07.912Z,2.27
2023-01-11T00:08:36.307Z,2.27
2023-01-11T00:11:05.146Z,2.28
2023-01-11T00:13:33.554Z,2.32
2023-01-11T00:16:08.779Z,2.31
2023-01-11T00:18:37.588Z,2.32
2023-01-11T00:21:07.056Z,2.33
2023-01-11T00:23:36.141Z,2.34
2023-01-11T00:26:05.017Z,2.36
2023-01-11T00:28:33.718Z,2.36
2023-01-11T00:31:02.150Z,2.39
2023-01-11T00:33:32.057Z,2.40
2023-01-11T00:36:00.446Z,2.43
2023-01-11T00:38:46.419Z,2.45
2023-01-11T00:41:33.951Z,2.48
2023-01-11T00:44:20.668Z,2.49
2023-01-11T00:47:06.550Z,2.50
2023-01-11T00:49:36.233Z,2.52
2023-01-11T00:52:08.782Z,2.54
2023-01-11T00:54:37.661Z,2.55
2023-01-11T00:57:07.320Z,2.56
2023-01-11T00:59:35.748Z,2.60
2023-01-11T01:02:04.547Z,2.59
2023-01-11T01:04:33.113Z,2.59
2023-01-11T01:07:02.867Z,2.59
2023-01-11T01:09:31.952Z,2.58
2023-01-11T01:12:01.926Z,2.58
2023-01-11T01:14:29.904Z,2.60
2023-01-11T01:17:00.341Z,2.61
2023-01-11T01:19:29.213Z,2.62
2023-01-11T01:21:58.556Z,2.64
2023-01-11T01:24:29.553Z,2.63
2023-01-11T01:26:58.395Z,2.62
2023-01-11T01:29:27.111Z,2.64
2023-01-11T01:31:55.489Z,2.66
2023-01-11T01:34:23.903Z,2.65
2023-01-11T01:36:52.223Z,2.65
2023-01-11T01:39:20.759Z,2.64
2023-01-11T01:41:50.572Z,2.62
2023-01-11T01:44:55.001Z,2.63
2023-01-11T01:47:27.633Z,2.62
2023-01-11T01:49:57.334Z,2.62
2023-01-11T01:52:29.199Z,2.63
2023-01-11T01:55:01.956Z,2.64
2023-01-11T01:57:35.601Z,2.65
2023-01-11T02:00:08.244Z,2.66
2023-01-11T02:02:38.415Z,2.66
2023-01-11T02:05:08.783Z,2.66
2023-01-11T02:07:41.258Z,2.67
2023-01-11T02:10:12.587Z,2.68
2023-01-11T02:12:47.878Z,2.70
2023-01-11T02:15:19.136Z,2.71
2023-01-11T02:17:47.636Z,2.73
2023-01-11T02:20:37.585Z,2.75
2023-01-11T02:23:40.465Z,2.77
2023-01-11T02:26:36.716Z,2.75
2023-01-11T02:29:15.050Z,2.75
2023-01-11T02:31:51.045Z,2.74
2023-01-11T02:34:31.983Z,2.74
2023-01-11T02:37:09.936Z,2.72
2023-01-11T02:39:52.053Z,2.69
2023-01-11T02:42:46.356Z,2.69
2023-01-11T02:45:26.755Z,2.69
2023-01-11T02:48:00.989Z,2.70
2023-01-11T02:50:35.119Z,2.70
2023-01-11T02:53:12.025Z,2.71
2023-01-11T02:55:43.609Z,2.72
2023-01-11T02:58:13.644Z,2.71
2023-01-11T03:00:45.575Z,2.72
2023-01-11T03:03:16.922Z,2.72
2023-01-11T03:05:50.284Z,2.74
2023-01-11T03:08:44.482Z,2.75
2023-01-11T03:11:36.445Z,2.74
2023-01-11T03:14:12.016Z,2.75
2023-01-11T03:16:47.794Z,2.76
2023-01-11T03:19:27.702Z,2.75
2023-01-11T03:22:05.242Z,2.74
2023-01-11T03:24:41.590Z,2.72
2023-01-11T03:27:18.339Z,2.70
2023-01-11T03:29:50.786Z,2.69
2023-01-11T03:32:28.371Z,2.63
2023-01-11T03:35:16.910Z,2.61
2023-01-11T03:37:51.833Z,2.58
2023-01-11T03:40:25.280Z,2.56
2023-01-11T03:43:11.692Z,2.55
2023-01-11T03:45:46.539Z,2.54
2023-01-11T03:48:19.533Z,2.55
2023-01-11T03:50:50.882Z,2.53
2023-01-11T03:53:22.115Z,2.54
2023-01-11T03:55:56.946Z,2.54
2023-01-11T03:58:27.916Z,2.54
2023-01-11T04:00:57.481Z,2.55
2023-01-11T04:03:28.232Z,2.58
2023-01-11T04:05:59.759Z,2.60
2023-01-11T04:08:28.423Z,2.62
2023-01-11T04:10:56.841Z,2.64
2023-01-11T04:13:25.243Z,2.65
2023-01-11T04:15:54.085Z,2.65
2023-01-11T04:18:22.445Z,2.67
2023-01-11T04:20:52.124Z,2.70
2023-01-11T04:23:20.523Z,2.75
2023-01-11T04:25:49.082Z,2.77
2023-01-11T04:28:17.460Z,2.81
2023-01-11T04:30:46.103Z,2.82
2023-01-11T04:33:14.571Z,2.82
2023-01-11T04:35:43.937Z,2.83
2023-01-11T04:38:13.671Z,2.85
2023-01-11T04:40:42.087Z,2.89
2023-01-11T04:43:09.768Z,2.89
2023-01-11T04:45:38.162Z,2.92
2023-01-11T04:48:06.990Z,2.94
2023-01-11T04:50:35.412Z,2.99
2023-01-11T04:53:03.824Z,3.00
2023-01-11T04:55:33.582Z,3.02
2023-01-11T04:58:02.005Z,3.04
2023-01-11T05:00:30.318Z,3.06
2023-01-11T05:03:00.310Z,3.08
2023-01-11T05:05:28.694Z,3.10
2023-01-11T05:07:57.237Z,3.11
2023-01-11T05:10:25.629Z,3.11
2023-01-11T05:12:55.356Z,3.14
2023-01-11T05:15:23.712Z,3.15
2023-01-11T05:17:52.209Z,3.15
2023-01-11T05:20:20.567Z,3.17
2023-01-11T05:22:49.285Z,3.17
2023-01-11T05:25:17.684Z,3.16
2023-01-11T05:27:46.101Z,3.15
2023-01-11T05:30:16.248Z,3.14
2023-01-11T05:32:44.829Z,3.15
2023-01-11T05:35:13.510Z,3.17
2023-01-11T05:37:41.841Z,3.17
2023-01-11T05:40:11.523Z,3.18
2023-01-11T05:42:40.030Z,3.17
2023-01-11T05:45:32.614Z,3.17
2023-01-11T05:48:02.818Z,3.16
2023-01-11T05:50:31.372Z,3.15
2023-01-11T05:52:59.723Z,3.15
2023-01-11T05:55:28.061Z,3.16
2023-01-11T05:57:56.441Z,3.17
2023-01-11T06:00:25.319Z,3.21
2023-01-11T06:02:53.817Z,3.23
2023-01-11T06:05:23.595Z,3.26
2023-01-11T06:07:51.974Z,3.27
2023-01-11T06:10:20.702Z,3.28
2023-01-11T06:13:14.940Z,3.31
2023-01-11T06:15:43.448Z,3.38
2023-01-11T06:18:11.815Z,3.42
2023-01-11T06:20:41.677Z,3.44
2023-01-11T06:23:10.038Z,3.45
2023-01-11T06:25:38.493Z,3.45
2023-01-11T06:28:07.095Z,3.46
2023-01-11T06:30:35.551Z,3.46
2023-01-11T06:33:06.888Z,3.48
2023-01-11T06:35:39.338Z,3.48
2023-01-11T06:38:10.082Z,3.48
2023-01-11T06:40:39.832Z,3.47
2023-01-11T06:43:11.743Z,3.48
2023-01-11T06:45:40.135Z,3.48
2023-01-11T06:48:08.556Z,3.49
2023-01-11T06:50:36.997Z,3.49
2023-01-11T06:53:05.432Z,3.50
2023-01-11T06:55:35.347Z,3.50
2023-01-11T06:58:03.723Z,3.51
2023-01-11T07:00:33.196Z,3.53
2023-01-11T07:03:05.103Z,3.53
2023-01-11T07:05:34.593Z,3.53
2023-01-11T07:08:03.278Z,3.53
2023-01-11T07:10:31.642Z,3.52
2023-01-11T07:13:01.392Z,3.54
2023-01-11T07:15:30.050Z,3.56
2023-01-11T07:18:00.199Z,3.57
2023-01-11T07:20:29.154Z,3.60
2023-01-11T07:23:02.050Z,3.62
2023-01-11T07:25:31.402Z,3.65
2023-01-11T07:28:03.331Z,3.67
2023-01-11T07:30:37.466Z,3.69
2023-01-11T07:33:11.744Z,3.68
2023-01-11T07:35:40.108Z,3.68
2023-01-11T07:38:18.468Z,3.69
2023-01-11T07:40:46.853Z,3.70
2023-01-11T07:43:15.720Z,3.71
2023-01-11T07:45:47.083Z,3.71
2023-01-11T07:48:20.587Z,3.71
2023-01-11T07:50:49.728Z,3.73
2023-01-11T07:53:19.003Z,3.73
2023-01-11T07:55:47.462Z,3.76
2023-01-11T07:58:17.329Z,3.78
2023-01-11T08:00:46.112Z,3.79
2023-01-11T08:03:14.870Z,3.81
2023-01-11T08:05:43.367Z,3.84
2023-01-11T08:08:11.800Z,3.86
2023-01-11T08:10:42.020Z,3.89
2023-01-11T08:13:31.153Z,3.92
2023-01-11T08:16:01.012Z,3.95
2023-01-11T08:18:29.336Z,3.99
2023-01-11T08:20:57.841Z,4.02
2023-01-11T08:23:27.180Z,4.04
2023-01-11T08:25:57.928Z,4.08
2023-01-11T08:28:26.340Z,4.12
2023-01-11T08:30:55.003Z,4.14
2023-01-11T08:33:24.957Z,4.17
2023-01-11T08:35:53.341Z,4.21
2023-01-11T08:38:21.670Z,4.22
2023-01-11T08:40:50.109Z,4.22
2023-01-11T08:43:18.707Z,4.23
2023-01-11T08:45:47.099Z,4.27
2023-01-11T08:48:16.078Z,4.32
2023-01-11T08:50:45.999Z,4.37
2023-01-11T08:53:15.743Z,4.42
2023-01-11T08:55:44.688Z,4.47
2023-01-11T08:58:13.068Z,4.54
2023-01-11T09:00:41.423Z,4.61
2023-01-11T09:03:11.895Z,4.66
2023-01-11T09:05:40.815Z,4.70
2023-01-11T09:08:10.777Z,4.72
2023-01-11T09:10:39.346Z,4.72
2023-01-11T09:13:07.697Z,4.72
2023-01-11T09:15:36.088Z,4.73
2023-01-11T09:18:05.155Z,4.76
2023-01-11T09:20:33.516Z,4.79
2023-01-11T09:23:02.096Z,4.80
2023-01-11T09:25:31.843Z,4.83
2023-01-11T09:28:00.246Z,4.85
2023-01-11T09:30:28.620Z,4.88
2023-01-11T09:32:57.587Z,4.91
2023-01-11T09:35:27.040Z,4.91
2023-01-11T09:37:56.778Z,4.95
2023-01-11T09:40:38.609Z,4.96
2023-01-11T09:43:08.759Z,4.95
2023-01-11T09:45:38.522Z,4.96
2023-01-11T09:48:15.433Z,4.97
2023-01-11T09:50:48.402Z,4.95
2023-01-11T09:53:22.554Z,4.94
2023-01-11T09:55:54.177Z,4.92
2023-01-11T09:58:42.620Z,4.94
2023-01-11T10:01:16.991Z,4.91
2023-01-11T10:04:16.465Z,4.91
2023-01-11T10:07:00.995Z,4.89
2023-01-11T10:18:27.917Z,4.95
2023-01-11T10:18:53.389Z,4.99
2023-01-11T10:21:29.916Z,5.04
2023-01-11T10:24:03.211Z,5.07
2023-01-11T10:26:39.931Z,5.08
2023-01-11T10:29:30.092Z,5.13
2023-01-11T10:32:32.249Z,5.16
2023-01-11T10:35:19.628Z,5.17
2023-01-11T10:38:07.167Z,5.17
2023-01-11T10:41:02.021Z,5.20
2023-01-11T10:43:33.901Z,5.24
2023-01-11T10:46:10.751Z,5.28
2023-01-11T10:48:40.760Z,5.32
2023-01-11T10:51:27.408Z,5.37
2023-01-11T10:54:02.728Z,5.41
2023-01-11T10:57:02.717Z,5.47
2023-01-11T10:59:44.016Z,5.54
2023-01-11T11:02:28.951Z,5.60
2023-01-11T11:05:12.703Z,5.64
2023-01-11T11:07:48.495Z,5.64
2023-01-11T11:10:22.573Z,5.65
2023-01-11T11:13:00.472Z,5.66
2023-01-11T11:15:35.165Z,5.68
2023-01-11T11:18:05.722Z,5.69
2023-01-11T11:20:35.634Z,5.73
2023-01-11T11:23:04.207Z,5.76
2023-01-11T11:25:34.215Z,5.79
2023-01-11T11:28:05.306Z,5.82
2023-01-11T11:30:38.290Z,5.84
2023-01-11T11:33:18.001Z,5.87
2023-01-11T11:35:56.900Z,5.90
2023-01-11T11:38:27.157Z,5.98
2023-01-11T11:41:05.412Z,6.03
2023-01-11T11:43:34.998Z,6.06
2023-01-11T11:46:05.152Z,6.06
2023-01-11T11:48:36.287Z,6.10
2023-01-11T11:51:08.930Z,6.13
2023-01-11T11:53:43.017Z,6.13
2023-01-11T11:56:22.029Z,6.16
2023-01-11T11:58:51.950Z,6.16
2023-01-11T12:01:27.214Z,6.17
2023-01-11T12:04:00.357Z,6.20
2023-01-11T12:06:30.539Z,6.22
2023-01-11T12:09:02.157Z,6.22
2023-01-11T12:11:36.214Z,6.28
2023-01-11T12:14:22.353Z,6.35
2023-01-11T12:16:51.692Z,6.42
2023-01-11T12:19:31.166Z,6.43
2023-01-11T12:22:12.548Z,6.43
2023-01-11T12:24:41.299Z,6.42
2023-01-11T12:27:22.101Z,6.42
2023-01-11T12:30:08.528Z,6.41
2023-01-11T12:33:02.341Z,6.38
2023-01-11T12:35:41.733Z,6.37
2023-01-11T12:38:30.740Z,6.36
2023-01-11T12:41:14.494Z,6.36
2023-01-11T12:43:59.216Z,6.37
2023-01-11T12:46:39.214Z,6.39
2023-01-11T12:49:25.005Z,6.40
2023-01-11T12:52:28.943Z,6.40
2023-01-11T12:55:15.279Z,6.41
2023-01-11T12:58:00.981Z,6.42
2023-01-11T13:01:07.496Z,6.40
2023-01-11T13:03:49.858Z,6.36
2023-01-11T13:06:24.836Z,6.34
2023-01-11T13:09:01.566Z,6.29
2023-01-11T13:11:43.672Z,6.27
2023-01-11T13:14:36.788Z,6.26
2023-01-11T13:17:18.494Z,6.24
2023-01-11T13:19:57.035Z,6.21
2023-01-11T13:22:30.756Z,6.17
2023-01-11T13:25:04.060Z,6.16
2023-01-11T13:27:32.836Z,6.14
2023-01-11T13:30:03.105Z,6.11
2023-01-11T13:32:37.498Z,6.10
2023-01-11T13:35:14.810Z,6.10
2023-01-11T13:37:49.188Z,6.10
2023-01-11T13:40:23.862Z,6.10
2023-01-11T13:42:57.719Z,6.09
2023-01-11T13:45:29.112Z,6.12
2023-01-11T13:48:01.795Z,6.16
2023-01-11T13:50:33.999Z,6.20
2023-01-11T13:53:10.187Z,6.21
2023-01-11T13:55:55.684Z,6.22
2023-01-11T13:58:29.239Z,6.24
2023-01-11T14:01:03.215Z,6.24
2023-01-11T14:03:36.423Z,6.24
2023-01-11T14:06:24.828Z,6.24
2023-01-11T14:09:17.667Z,6.21
2023-01-11T14:11:59.444Z,6.21
2023-01-11T14:14:48.932Z,6.22
2023-01-11T14:17:32.482Z,6.21
2023-01-11T14:20:07.881Z,6.21
2023-01-11T14:22:44.201Z,6.21
2023-01-11T14:25:19.632Z,6.22
2023-01-11T14:28:09.190Z,6.21
2023-01-11T14:31:00.944Z,6.22
2023-01-11T14:33:57.811Z,6.21
2023-01-11T14:36:52.788Z,6.21
2023-01-11T14:40:05.754Z,6.19
2023-01-11T14:43:04.300Z,6.18
2023-01-11T14:45:48.961Z,6.17
2023-01-11T14:48:28.971Z,6.18
2023-01-11T14:51:22.133Z,6.21
2023-01-11T14:53:58.016Z,6.22
2023-01-11T14:56:36.038Z,6.22
2023-01-11T14:59:06.511Z,6.21
2023-01-11T15:02:14.196Z,6.20
2023-01-11T15:05:05.049Z,6.20
2023-01-11T15:07:41.035Z,6.21
2023-01-11T15:10:45.499Z,6.23
2023-01-11T15:13:19.895Z,6.23
2023-01-11T15:16:06.305Z,6.26
2023-01-11T15:18:44.252Z,6.26
2023-01-11T15:21:18.542Z,6.25
2023-01-11T15:23:51.597Z,6.24
2023-01-11T15:26:21.865Z,6.23
2023-01-11T15:28:52.356Z,6.22
2023-01-11T15:31:39.229Z,6.20
2023-01-11T15:34:25.355Z,6.24
2023-01-11T15:36:56.743Z,6.28
2023-01-11T15:39:36.818Z,6.29
2023-01-11T15:42:29.246Z,6.31
2023-01-11T15:45:36.788Z,6.33
2023-01-11T15:48:23.852Z,6.33
2023-01-11T15:51:15.088Z,6.30
2023-01-11T15:54:11.577Z,6.28
2023-01-11T15:57:02.551Z,6.25
2023-01-11T16:00:04.205Z,6.21
2023-01-11T16:03:13.856Z,6.17
2023-01-11T16:05:50.892Z,6.11
2023-01-11T16:08:28.245Z,6.08
2023-01-11T16:11:09.401Z,6.04
2023-01-11T16:13:52.492Z,6.02
2023-01-11T16:16:24.605Z,6.00
2023-01-11T16:18:56.761Z,5.98
2023-01-11T16:21:33.778Z,5.97
2023-01-11T16:24:07.088Z,5.97
2023-01-11T16:26:36.697Z,5.99
2023-01-11T16:29:11.590Z,6.01
2023-01-11T16:31:54.220Z,6.01
2023-01-11T16:34:22.848Z,6.00
2023-01-11T16:36:51.196Z,5.98
2023-01-11T16:39:24.029Z,5.99
2023-01-11T16:41:56.771Z,5.98
2023-01-11T16:44:35.048Z,5.95
2023-01-11T16:47:11.353Z,5.93
2023-01-11T16:49:41.009Z,5.89
2023-01-11T16:52:45.449Z,5.86
2023-01-11T16:55:22.381Z,5.83
2023-01-11T16:57:54.947Z,5.80
2023-01-11T17:00:28.928Z,5.78
2023-01-11T17:03:16.964Z,5.78
2023-01-11T17:05:55.626Z,5.76
2023-01-11T17:08:30.035Z,5.72
2023-01-11T17:11:02.623Z,5.70
2023-01-11T17:13:53.747Z,5.67
2023-01-11T17:16:24.943Z,5.62
2023-01-11T17:18:54.481Z,5.61
2023-01-11T17:21:26.519Z,5.61
2023-01-11T17:23:59.848Z,5.59
2023-01-11T17:26:32.895Z,5.59
2023-01-11T17:29:01.991Z,5.59
2023-01-11T17:31:33.318Z,5.58
2023-01-11T17:34:04.753Z,5.57
2023-01-11T17:36:34.324Z,5.59
2023-01-11T17:39:04.330Z,5.59
2023-01-11T17:41:51.937Z,5.61
2023-01-11T17:44:42.076Z,5.61
2023-01-11T17:47:13.304Z,5.58
2023-01-11T17:49:41.805Z,5.58
2023-01-11T17:52:20.068Z,5.57
2023-01-11T17:54:48.849Z,5.57
2023-01-11T17:57:19.696Z,5.54
2023-01-11T17:59:48.061Z,5.55
2023-01-11T18:02:16.740Z,5.56
2023-01-11T18:04:59.440Z,5.55
2023-01-11T18:07:27.833Z,5.56
2023-01-11T18:10:02.155Z,5.56
2023-01-11T18:12:35.363Z,5.57
2023-01-11T18:15:06.761Z,5.56
2023-01-11T18:17:38.915Z,5.56
2023-01-11T18:20:33.098Z,5.55
2023-01-11T18:23:05.186Z,5.53
2023-01-11T18:25:35.575Z,5.51
2023-01-11T18:28:28.879Z,5.55
2023-01-11T18:31:01.838Z,5.58
2023-01-11T18:33:33.526Z,5.60
2023-01-11T18:36:03.565Z,5.58
2023-01-11T18:38:33.478Z,5.59
2023-01-11T18:41:20.881Z,5.58
2023-01-11T18:43:50.706Z,5.60
2023-01-11T18:46:19.144Z,5.61
2023-01-11T18:48:47.617Z,5.62
2023-01-11T18:51:19.173Z,5.61
2023-01-11T18:53:47.533Z,5.58
2023-01-11T18:56:16.636Z,5.52
2023-01-11T18:58:45.218Z,5.46
2023-01-11T19:01:15.393Z,5.44
2023-01-11T19:03:46.021Z,5.43
2023-01-11T19:06:15.124Z,5.43
2023-01-11T19:08:43.513Z,5.44
2023-01-11T19:11:13.911Z,5.41
2023-01-11T19:13:42.253Z,5.42
2023-01-11T19:16:10.675Z,5.40
2023-01-11T19:18:40.518Z,5.40
2023-01-11T19:21:09.378Z,5.41
2023-01-11T19:23:37.796Z,5.44
2023-01-11T19:26:06.450Z,5.45
2023-01-11T19:28:34.935Z,5.46
2023-01-11T19:31:07.708Z,5.48
2023-01-11T19:33:36.277Z,5.50
2023-01-11T19:36:09.196Z,5.51
2023-01-11T19:38:39.144Z,5.53
2023-01-11T19:41:10.562Z,5.55
2023-01-11T19:43:44.822Z,5.57
2023-01-11T19:46:15.003Z,5.56
2023-01-11T19:48:45.521Z,5.58
2023-01-11T19:51:15.312Z,5.60
2023-01-11T19:53:43.642Z,5.62
2023-01-11T19:56:12.011Z,5.64
2023-01-11T19:58:40.447Z,5.65
2023-01-11T20:01:12.953Z,5.65
2023-01-11T20:03:42.065Z,5.68
2023-01-11T20:06:10.672Z,5.69
2023-01-11T20:08:41.237Z,5.69
2023-01-11T20:11:11.744Z,5.68
2023-01-11T20:13:40.551Z,5.67
2023-01-11T20:16:11.069Z,5.65
2023-01-11T20:18:42.370Z,5.65
2023-01-11T20:21:11.413Z,5.65
2023-01-11T20:23:41.298Z,5.66
2023-01-11T20:26:14.943Z,5.64
2023-01-11T20:28:44.276Z,5.65
2023-01-11T20:31:13.258Z,5.62
2023-01-11T20:33:41.737Z,5.59
2023-01-11T20:36:15.094Z,5.55
2023-01-11T20:38:45.733Z,5.52
2023-01-11T20:41:35.828Z,5.50
2023-01-11T20:44:05.043Z,5.50
2023-01-11T20:46:33.787Z,5.53
2023-01-11T20:49:02.358Z,5.57
2023-01-11T20:51:30.835Z,5.62
2023-01-11T20:54:00.600Z,5.61
2023-01-11T20:56:29.218Z,5.62
2023-01-11T20:58:57.616Z,5.60
2023-01-11T21:01:26.412Z,5.58
2023-01-11T21:03:55.580Z,5.56
2023-01-11T21:06:23.947Z,5.54
2023-01-11T21:08:55.547Z,5.52
2023-01-11T21:11:25.639Z,5.50
2023-01-11T21:13:55.059Z,5.48
2023-01-11T21:16:25.718Z,5.46
2023-01-11T21:18:55.722Z,5.45
2023-01-11T21:21:25.240Z,5.43
2023-01-11T21:23:56.299Z,5.42
2023-01-11T21:26:26.954Z,5.40
2023-01-11T21:28:58.796Z,5.39
2023-01-11T21:31:28.288Z,5.38
2023-01-11T21:33:56.767Z,5.36
2023-01-11T21:36:27.512Z,5.33
2023-01-11T21:38:56.720Z,5.32
2023-01-11T21:41:42.445Z,5.33
2023-01-11T21:44:11.679Z,5.33
2023-01-11T21:46:40.839Z,5.34
2023-01-11T21:49:09.918Z,5.32
2023-01-11T21:51:38.744Z,5.32
2023-01-11T21:54:08.773Z,5.32
2023-01-11T21:56:38.771Z,5.32
2023-01-11T21:59:07.079Z,5.34
2023-01-11T22:01:35.543Z,5.34
2023-01-11T22:04:06.226Z,5.36
2023-01-11T22:06:36.681Z,5.37
2023-01-11T22:09:06.187Z,5.40
2023-01-11T22:11:34.560Z,5.42
2023-01-11T22:14:06.556Z,5.43
2023-01-11T22:16:35.626Z,5.44
2023-01-11T22:19:06.071Z,5.44
2023-01-11T22:21:35.707Z,5.47
2023-01-11T22:24:04.769Z,5.53
2023-01-11T22:26:35.746Z,5.61
2023-01-11T22:29:12.899Z,5.68
2023-01-11T22:31:43.156Z,5.78
2023-01-11T22:34:13.709Z,5.87
2023-01-11T22:36:42.805Z,5.98
2023-01-11T22:39:11.902Z,6.06
2023-01-11T22:41:41.067Z,6.10
2023-01-11T22:44:11.060Z,6.15
2023-01-11T22:46:39.668Z,6.19
2023-01-11T22:49:08.568Z,6.21
2023-01-11T22:51:37.115Z,6.24
2023-01-11T22:54:05.990Z,6.25
2023-01-11T22:56:34.629Z,6.29
2023-01-11T22:59:03.122Z,6.30
2023-01-11T23:01:34.787Z,6.29
2023-01-11T23:04:03.905Z,6.29
2023-01-11T23:06:34.505Z,6.30
2023-01-11T23:09:03.230Z,6.28
2023-01-11T23:11:51.137Z,6.28
2023-01-11T23:14:21.035Z,6.27
2023-01-11T23:16:50.946Z,6.29
2023-01-11T23:19:20.608Z,6.29
2023-01-11T23:21:49.709Z,6.29
2023-01-11T23:24:18.763Z,6.33
2023-01-11T23:26:47.356Z,6.35
2023-01-11T23:29:15.635Z,6.38
2023-01-11T23:31:45.658Z,6.40
2023-01-11T23:34:15.628Z,6.41
2023-01-11T23:36:44.321Z,6.41
2023-01-11T23:39:15.246Z,6.41
2023-01-11T23:42:01.328Z,6.39
2023-01-11T23:44:30.380Z,6.40
2023-01-11T23:47:16.170Z,6.40
2023-01-11T23:49:45.885Z,6.40
2023-01-11T23:52:14.667Z,6.41
2023-01-11T23:54:45.764Z,6.39
2023-01-11T23:57:15.256Z,6.41
2023-01-11T23:59:44.633Z,6.41
